Time;durP1;ratioP1;P1;durP2;ratioP2;P2;SDS_P1;SDS_P2;PMS_P1;PMS_P2;Temp;Humidity;BMP_temperature;BMP_pressure;BME280_temperature;BME280_humidity;BME280_pressure;Samples;Min_cycle;Max_cycle;Signal;HPM_P1;HPM_P2
2022/06/24 00:00:09;;;;;;;12.05;4.75;;;26.50;1.00;;;;;;5154148;27;20109;-46
2022/06/24 00:02:36;;;;;;;15.02;4.85;;;26.50;1.00;;;;;;5154928;27;20023;-47
2022/06/24 00:05:07;;;;;;;12.98;4.25;;;26.40;1.00;;;;;;5147222;27;20030;-47
2022/06/24 00:07:45;;;;;;;13.70;4.10;;;26.50;1.00;;;;;;5152940;27;20066;-50
2022/06/24 00:10:12;;;;;;;9.25;3.42;;;26.40;1.00;;;;;;5143346;27;20088;-46
2022/06/24 00:12:38;;;;;;;8.73;4.15;;;26.40;1.00;;;;;;5152998;27;20050;-49
2022/06/24 00:15:04;;;;;;;11.95;4.75;;;26.50;1.00;;;;;;5149803;27;20118;-47
2022/06/24 00:17:32;;;;;;;11.68;4.53;;;26.50;1.00;;;;;;5154812;27;20023;-46
2022/06/24 00:20:04;;;;;;;15.18;4.13;;;26.30;1.00;;;;;;5148716;27;20015;-48
2022/06/24 00:22:32;;;;;;;14.48;4.20;;;26.30;1.00;;;;;;5154651;27;20080;-46
2022/06/24 00:25:23;;;;;;;14.82;4.80;;;26.20;1.00;;;;;;5138193;27;20031;-46
2022/06/24 00:28:01;;;;;;;16.30;5.25;;;26.20;1.00;;;;;;5146067;27;20421;-47
2022/06/24 00:30:27;;;;;;;20.65;5.15;;;26.40;1.00;;;;;;5147896;27;20460;-46
2022/06/24 00:33:30;;;;;;;10.95;4.53;;;26.30;1.00;;;;;;5151357;27;20034;-47
2022/06/24 00:35:59;;;;;;;11.00;4.25;;;26.40;1.00;;;;;;5148906;27;20488;-46
2022/06/24 00:38:36;;;;;;;13.57;4.05;;;26.20;1.00;;;;;;5148945;27;20011;-48
2022/06/24 00:41:12;;;;;;;16.45;4.38;;;26.20;1.00;;;;;;5147488;27;20484;-45
2022/06/24 00:43:53;;;;;;;18.10;5.03;;;26.30;1.00;;;;;;5153760;27;20022;-46
2022/06/24 00:46:24;;;;;;;14.15;4.85;;;26.40;1.00;;;;;;5149069;27;20022;-48
2022/06/24 00:48:52;;;;;;;16.00;4.30;;;26.30;1.00;;;;;;5152650;27;20042;-46
2022/06/24 00:51:20;;;;;;;14.32;3.63;;;26.30;1.00;;;;;;5141232;27;20054;-45
2022/06/24 00:53:49;;;;;;;16.02;3.92;;;26.30;1.00;;;;;;5132112;27;20019;-45
2022/06/24 00:56:22;;;;;;;11.90;3.70;;;26.30;1.00;;;;;;5150200;27;20095;-52
2022/06/24 00:58:55;;;;;;;12.68;4.03;;;26.30;1.00;;;;;;5143651;27;20019;-47
2022/06/24 01:01:33;;;;;;;9.50;4.25;;;26.20;1.00;;;;;;5141045;27;20480;-50
2022/06/24 01:04:00;;;;;;;12.68;4.35;;;26.30;1.00;;;;;;5151295;27;20067;-50
2022/06/24 01:06:26;;;;;;;13.50;4.32;;;26.20;1.00;;;;;;5151050;27;20112;-51
2022/06/24 01:08:52;;;;;;;12.05;3.85;;;26.20;1.00;;;;;;5153943;27;20027;-48
2022/06/24 01:11:28;;;;;;;16.33;4.32;;;26.10;1.00;;;;;;5149706;27;20062;-49
2022/06/24 01:13:55;;;;;;;14.32;4.53;;;26.10;1.00;;;;;;5153941;27;20030;-52
2022/06/24 01:16:22;;;;;;;9.55;4.15;;;26.10;1.00;;;;;;5149539;27;20030;-47
2022/06/24 01:18:56;;;;;;;15.95;4.43;;;26.20;1.00;;;;;;5153603;27;20509;-47
2022/06/24 01:21:43;;;;;;;12.88;4.38;;;26.20;1.00;;;;;;5152945;27;20367;-53
2022/06/24 01:24:19;;;;;;;9.38;4.05;;;26.10;1.00;;;;;;5140429;27;20062;-47
2022/06/24 01:26:50;;;;;;;11.35;4.00;;;26.10;1.00;;;;;;5135548;27;20023;-48
2022/06/24 01:29:17;;;;;;;14.75;4.53;;;26.20;1.00;;;;;;5151932;27;20110;-48
2022/06/24 01:31:45;;;;;;;16.70;4.15;;;26.20;1.00;;;;;;5151882;27;20023;-47
2022/06/24 01:34:11;;;;;;;8.95;4.20;;;26.20;1.00;;;;;;5153765;27;20064;-49
2022/06/24 01:36:38;;;;;;;12.25;4.55;;;26.20;1.00;;;;;;5152622;27;20403;-49
2022/06/24 01:39:04;;;;;;;11.90;3.97;;;26.20;1.00;;;;;;5153436;27;20015;-49
2022/06/24 01:41:30;;;;;;;12.02;4.25;;;26.10;1.00;;;;;;5150735;27;20177;-50
2022/06/24 01:43:56;;;;;;;16.27;5.10;;;26.00;1.00;;;;;;5151959;27;20101;-48
2022/06/24 01:46:21;;;;;;;11.25;4.40;;;26.10;1.00;;;;;;5150628;27;20022;-46
2022/06/24 01:48:47;;;;;;;12.20;4.93;;;26.00;1.00;;;;;;5150170;27;20124;-49
2022/06/24 01:51:14;;;;;;;11.60;3.38;;;25.90;1.00;;;;;;5144538;27;20070;-46
2022/06/24 01:53:40;;;;;;;10.52;4.65;;;25.90;1.00;;;;;;5147232;27;20030;-49
2022/06/24 01:56:06;;;;;;;14.95;3.97;;;25.90;1.00;;;;;;5151683;27;20383;-49
2022/06/24 01:58:31;;;;;;;10.40;4.15;;;25.70;1.00;;;;;;5153179;27;20026;-46
2022/06/24 02:00:57;;;;;;;10.65;4.50;;;25.80;1.00;;;;;;5152282;27;20023;-47
2022/06/24 02:03:23;;;;;;;12.40;4.18;;;25.70;1.00;;;;;;5145491;27;20030;-48
2022/06/24 02:05:50;;;;;;;15.88;4.30;;;25.80;1.00;;;;;;5151476;27;20031;-47
2022/06/24 02:08:16;;;;;;;11.73;4.07;;;25.90;1.00;;;;;;5138977;27;20022;-45
2022/06/24 02:13:26;;;;;;;10.73;3.35;;;26.00;1.00;;;;;;5139478;27;20030;-45
2022/06/24 02:15:53;;;;;;;8.75;3.70;;;25.90;1.00;;;;;;5149530;27;20483;-45
2022/06/24 02:18:18;;;;;;;9.23;3.75;;;25.90;1.00;;;;;;5146835;27;20057;-47
2022/06/24 02:20:44;;;;;;;12.05;4.00;;;25.80;1.00;;;;;;5151109;27;20436;-45
2022/06/24 02:23:10;;;;;;;11.70;3.92;;;26.10;1.00;;;;;;5153028;27;20445;-46
2022/06/24 02:25:35;;;;;;;14.18;4.50;;;26.00;1.00;;;;;;5151906;27;20042;-45
2022/06/24 02:28:01;;;;;;;11.20;4.00;;;25.90;1.00;;;;;;5151194;27;20042;-46
2022/06/24 02:30:27;;;;;;;11.85;4.00;;;25.90;1.00;;;;;;5142162;27;20113;-46
2022/06/24 02:32:53;;;;;;;13.45;3.97;;;25.90;1.00;;;;;;5139655;27;20023;-46
2022/06/24 02:35:18;;;;;;;13.10;4.40;;;25.90;1.00;;;;;;5151629;27;20504;-46
2022/06/24 02:37:44;;;;;;;10.02;3.60;;;25.90;1.00;;;;;;5149093;27;20034;-45
2022/06/24 02:42:57;;;;;;;12.25;4.55;;;25.90;1.00;;;;;;5147138;27;20038;-49
2022/06/24 02:45:24;;;;;;;10.25;3.78;;;25.80;1.00;;;;;;5149234;27;20035;-48
2022/06/24 02:47:49;;;;;;;13.27;4.40;;;25.80;1.00;;;;;;5151680;27;20014;-50
2022/06/24 02:50:15;;;;;;;11.30;3.90;;;26.00;1.00;;;;;;5150738;27;20030;-46
2022/06/24 02:52:41;;;;;;;11.50;4.00;;;25.80;1.00;;;;;;5151624;27;20208;-47
2022/06/24 02:55:07;;;;;;;14.70;4.10;;;25.80;1.00;;;;;;5149542;27;20094;-45
2022/06/24 02:57:33;;;;;;;16.30;4.80;;;26.00;1.00;;;;;;5136261;27;20109;-46
2022/06/24 02:59:58;;;;;;;13.55;4.80;;;25.80;1.00;;;;;;5151993;27;20437;-49
2022/06/24 03:02:24;;;;;;;12.15;4.45;;;26.00;1.00;;;;;;5153192;27;20079;-46
2022/06/24 03:04:50;;;;;;;16.65;4.45;;;25.90;1.00;;;;;;5156491;27;20034;-47
2022/06/24 03:07:15;;;;;;;13.38;4.82;;;25.80;1.00;;;;;;5152374;27;20034;-45
2022/06/24 03:09:41;;;;;;;13.15;4.35;;;25.80;1.00;;;;;;5156043;27;20023;-45
2022/06/24 03:12:07;;;;;;;10.25;4.45;;;25.70;1.00;;;;;;5154558;27;20038;-48
2022/06/24 03:14:33;;;;;;;9.88;3.75;;;25.80;1.00;;;;;;5156325;27;20018;-49
2022/06/24 03:16:58;;;;;;;11.95;4.35;;;25.80;1.00;;;;;;5155438;27;20023;-48
2022/06/24 03:19:24;;;;;;;12.32;4.38;;;25.90;1.00;;;;;;5156078;27;20065;-48
2022/06/24 03:21:49;;;;;;;11.07;3.83;;;25.80;1.00;;;;;;5154805;27;20373;-45
2022/06/24 03:24:15;;;;;;;15.93;4.88;;;25.70;1.00;;;;;;5153355;27;20041;-46
2022/06/24 03:26:41;;;;;;;13.75;4.60;;;25.70;1.00;;;;;;5153468;27;20099;-47
2022/06/24 03:29:06;;;;;;;10.30;4.10;;;25.70;1.00;;;;;;5156054;27;20023;-45
2022/06/24 03:31:32;;;;;;;13.00;4.22;;;25.90;1.00;;;;;;5142237;27;20041;-45
2022/06/24 03:33:58;;;;;;;10.93;3.45;;;25.90;1.00;;;;;;5155794;27;20019;-46
2022/06/24 03:36:24;;;;;;;14.98;4.68;;;25.60;1.00;;;;;;5154790;27;20075;-47
2022/06/24 03:38:50;;;;;;;17.23;4.20;;;25.60;1.00;;;;;;5155616;27;20476;-47
2022/06/24 03:41:16;;;;;;;13.95;4.28;;;25.80;1.00;;;;;;5153539;27;20038;-46
2022/06/24 03:43:42;;;;;;;12.27;4.43;;;25.80;1.00;;;;;;5155506;27;20027;-45
2022/06/24 03:46:07;;;;;;;12.40;4.43;;;25.60;1.00;;;;;;5155749;27;20200;-48
2022/06/24 03:48:33;;;;;;;12.35;4.50;;;25.70;1.00;;;;;;5152688;27;20109;-50
2022/06/24 03:50:59;;;;;;;13.30;4.85;;;25.60;1.00;;;;;;5154355;27;20057;-45
2022/06/24 03:53:24;;;;;;;12.15;4.60;;;25.60;1.00;;;;;;5154460;27;20034;-48
2022/06/24 03:55:50;;;;;;;11.85;3.92;;;25.70;1.00;;;;;;5145043;27;20023;-47
2022/06/24 03:58:19;;;;;;;11.50;4.55;;;25.40;1.00;;;;;;5154478;27;20041;-48
2022/06/24 04:00:45;;;;;;;14.10;3.92;;;25.40;1.00;;;;;;5149888;27;20463;-48
2022/06/24 04:03:11;;;;;;;9.95;3.70;;;25.30;1.00;;;;;;5150174;27;20049;-45
2022/06/24 04:05:37;;;;;;;16.13;4.00;;;25.20;1.00;;;;;;5154831;27;20110;-48
2022/06/24 04:08:03;;;;;;;19.90;4.43;;;25.30;1.00;;;;;;5153291;27;20033;-48
2022/06/24 04:10:29;;;;;;;12.80;4.57;;;25.30;1.00;;;;;;5134170;27;20523;-46
2022/06/24 04:12:54;;;;;;;10.48;3.47;;;25.40;1.00;;;;;;5148703;27;20109;-44
2022/06/24 04:15:20;;;;;;;14.40;5.28;;;25.30;1.00;;;;;;5154342;27;20023;-45
2022/06/24 04:17:47;;;;;;;11.73;4.75;;;25.30;1.00;;;;;;5144285;27;20026;-45
2022/06/24 04:20:14;;;;;;;10.80;3.75;;;25.40;1.00;;;;;;5151602;27;20023;-45
2022/06/24 04:22:41;;;;;;;14.75;5.07;;;25.40;1.00;;;;;;5149520;27;20468;-45
2022/06/24 04:25:07;;;;;;;11.93;3.88;;;25.30;1.00;;;;;;5150919;27;20046;-46
2022/06/24 04:27:33;;;;;;;14.32;4.60;;;25.40;1.00;;;;;;5150400;27;20038;-49
2022/06/24 04:30:04;;;;;;;10.13;3.83;;;25.40;1.00;;;;;;5153184;27;20018;-50
2022/06/24 04:32:30;;;;;;;11.27;3.97;;;25.40;1.00;;;;;;5142924;27;20114;-52
2022/06/24 04:34:56;;;;;;;12.82;4.55;;;25.20;1.00;;;;;;5154410;27;20109;-48
2022/06/24 04:37:21;;;;;;;14.95;4.55;;;25.20;1.00;;;;;;5152618;27;20486;-45
2022/06/24 04:39:47;;;;;;;12.65;4.55;;;25.20;1.00;;;;;;5147065;27;20427;-45
2022/06/24 04:42:12;;;;;;;11.70;3.80;;;25.40;1.00;;;;;;5153408;27;20046;-46
2022/06/24 04:44:38;;;;;;;9.98;4.10;;;25.40;1.00;;;;;;5138017;27;20134;-46
2022/06/24 04:47:04;;;;;;;14.70;4.32;;;25.30;1.00;;;;;;5153374;27;20482;-45
2022/06/24 04:49:32;;;;;;;10.35;3.97;;;25.40;1.00;;;;;;5152033;27;20045;-45
2022/06/24 04:51:58;;;;;;;16.75;4.40;;;25.40;1.00;;;;;;5138569;27;20477;-47
2022/06/24 04:54:23;;;;;;;12.25;4.35;;;25.60;1.00;;;;;;5152508;27;20030;-48
2022/06/24 04:56:49;;;;;;;10.93;4.05;;;25.50;1.00;;;;;;5153879;27;20018;-47
2022/06/24 04:59:15;;;;;;;14.18;4.10;;;25.40;1.00;;;;;;5151508;27;20105;-45
2022/06/24 05:01:40;;;;;;;16.02;4.47;;;25.50;1.00;;;;;;5153779;27;20030;-45
2022/06/24 05:04:06;;;;;;;19.15;4.78;;;25.50;1.00;;;;;;5143967;27;20074;-47
2022/06/24 05:06:32;;;;;;;13.23;4.90;;;25.50;1.00;;;;;;5146272;27;20019;-45
2022/06/24 05:08:58;;;;;;;14.43;4.00;;;25.70;1.00;;;;;;5143121;27;20147;-46
2022/06/24 05:11:23;;;;;;;10.52;4.47;;;25.50;1.00;;;;;;5153804;27;20519;-50
2022/06/24 05:13:49;;;;;;;11.40;4.32;;;25.60;1.00;;;;;;5152854;27;20476;-47
2022/06/24 05:16:15;;;;;;;13.90;3.75;;;25.60;1.00;;;;;;5153606;27;20029;-46
2022/06/24 05:18:41;;;;;;;8.20;4.32;;;25.60;1.00;;;;;;5152499;27;20038;-48
2022/06/24 05:21:06;;;;;;;11.45;3.90;;;25.50;1.00;;;;;;5153690;27;20034;-48
2022/06/24 05:23:32;;;;;;;16.98;4.60;;;25.60;1.00;;;;;;5151656;27;20479;-49
2022/06/24 05:25:57;;;;;;;17.33;4.93;;;25.60;1.00;;;;;;5152863;27;20117;-45
2022/06/24 05:28:23;;;;;;;13.85;5.03;;;25.60;1.00;;;;;;5150314;27;20399;-46
2022/06/24 05:30:56;;;;;;;14.23;4.88;;;25.70;1.00;;;;;;5132976;27;20019;-48
2022/06/24 05:33:23;;;;;;;8.70;4.15;;;25.80;1.00;;;;;;5151746;27;20015;-48
2022/06/24 05:35:53;;;;;;;19.30;4.80;;;25.70;1.00;;;;;;5147945;27;20030;-47
2022/06/24 05:38:23;;;;;;;14.27;5.50;;;25.80;1.00;;;;;;5151777;27;20423;-49
2022/06/24 05:40:49;;;;;;;17.45;5.80;;;25.90;1.00;;;;;;5153309;27;20471;-46
2022/06/24 05:43:15;;;;;;;15.70;5.07;;;25.70;1.00;;;;;;5152776;27;20376;-46
2022/06/24 05:45:41;;;;;;;16.75;5.95;;;25.70;1.00;;;;;;5152706;27;20035;-44
2022/06/24 05:48:07;;;;;;;17.80;5.43;;;25.90;1.00;;;;;;5147862;27;20031;-45
2022/06/24 05:50:39;;;;;;;12.48;5.53;;;25.90;1.00;;;;;;5152326;27;20478;-49
2022/06/24 05:55:55;;;;;;;12.82;5.38;;;25.80;1.00;;;;;;5142835;27;20083;-47
2022/06/24 05:58:20;;;;;;;16.17;5.40;;;25.90;1.00;;;;;;5152459;27;20407;-48
2022/06/24 06:00:46;;;;;;;15.52;5.53;;;25.90;1.00;;;;;;5152464;27;20026;-45
2022/06/24 06:03:11;;;;;;;15.38;6.22;;;25.90;1.00;;;;;;5153089;27;20027;-45
2022/06/24 06:05:37;;;;;;;14.60;5.72;;;25.90;1.00;;;;;;5144463;27;20039;-45
2022/06/24 06:08:03;;;;;;;16.20;6.10;;;25.90;1.00;;;;;;5146387;27;20456;-45
2022/06/24 06:10:28;;;;;;;14.48;6.28;;;25.90;1.00;;;;;;5139555;27;20105;-47
2022/06/24 06:12:54;;;;;;;16.10;5.22;;;26.00;1.00;;;;;;5153165;27;20460;-47
2022/06/24 06:15:20;;;;;;;15.50;5.95;;;25.90;1.00;;;;;;5151836;27;20027;-50
2022/06/24 06:17:45;;;;;;;15.25;5.97;;;26.10;1.00;;;;;;5153134;27;20090;-50
2022/06/24 06:20:11;;;;;;;14.20;6.03;;;25.90;1.00;;;;;;5150734;27;20058;-46
2022/06/24 06:22:37;;;;;;;14.68;5.50;;;26.00;1.00;;;;;;5139621;27;20341;-47
2022/06/24 06:25:03;;;;;;;17.25;6.38;;;26.10;1.00;;;;;;5150153;27;20070;-53
2022/06/24 06:27:28;;;;;;;12.82;5.55;;;26.00;1.00;;;;;;5152209;27;20041;-48
2022/06/24 06:29:55;;;;;;;16.25;5.80;;;26.10;1.00;;;;;;5152136;27;20460;-47
2022/06/24 06:32:21;;;;;;;15.15;6.38;;;26.00;1.00;;;;;;5152824;27;20019;-49
2022/06/24 06:34:46;;;;;;;14.40;6.05;;;26.00;1.00;;;;;;5147118;27;20028;-49
2022/06/24 06:37:12;;;;;;;17.58;6.38;;;26.10;1.00;;;;;;5143791;27;20026;-45
2022/06/24 06:39:37;;;;;;;13.02;5.70;;;26.10;1.00;;;;;;5155875;27;20521;-47
2022/06/24 06:42:04;;;;;;;15.35;5.65;;;26.00;1.00;;;;;;5150234;27;20028;-45
2022/06/24 06:44:29;;;;;;;16.02;5.30;;;26.20;1.00;;;;;;5140372;27;20039;-45
2022/06/24 06:46:55;;;;;;;14.27;6.30;;;26.20;1.00;;;;;;5154707;27;20025;-48
2022/06/24 06:49:21;;;;;;;13.63;4.90;;;26.10;1.00;;;;;;5155627;27;20037;-48
2022/06/24 06:51:47;;;;;;;17.15;5.47;;;26.20;1.00;;;;;;5156728;27;20102;-49
2022/06/24 06:54:12;;;;;;;14.73;5.35;;;26.20;1.00;;;;;;5155781;27;20038;-47
2022/06/24 06:56:39;;;;;;;14.57;5.13;;;26.20;1.00;;;;;;5154423;27;20468;-44
2022/06/24 06:59:04;;;;;;;15.30;4.55;;;26.20;1.00;;;;;;5149261;27;20097;-51
2022/06/24 07:01:30;;;;;;;11.48;3.90;;;26.20;1.00;;;;;;5148321;27;20047;-49
2022/06/24 07:03:57;;;;;;;12.32;4.43;;;26.20;1.00;;;;;;5154936;27;20041;-48
2022/06/24 07:06:24;;;;;;;14.57;4.72;;;26.40;1.00;;;;;;5156118;27;20035;-50
2022/06/24 07:08:49;;;;;;;11.55;3.67;;;26.30;1.00;;;;;;5139311;27;20024;-50
2022/06/24 07:11:15;;;;;;;10.77;4.57;;;26.30;1.00;;;;;;5155916;27;20140;-49
2022/06/24 07:13:40;;;;;;;11.98;4.32;;;26.30;1.00;;;;;;5155376;27;20034;-45
2022/06/24 07:16:10;;;;;;;15.45;4.47;;;26.40;1.00;;;;;;5155008;27;20039;-47
2022/06/24 07:18:36;;;;;;;12.85;4.90;;;26.30;1.00;;;;;;5145309;27;20034;-46
2022/06/24 07:21:02;;;;;;;16.70;4.93;;;26.50;1.00;;;;;;5148899;27;20030;-45
2022/06/24 07:23:27;;;;;;;17.52;4.95;;;26.40;1.00;;;;;;5156076;27;20460;-47
2022/06/24 07:25:56;;;;;;;12.52;4.30;;;26.50;1.00;;;;;;5152226;27;20042;-45
2022/06/24 07:28:22;;;;;;;10.70;4.75;;;26.70;1.00;;;;;;5151580;27;20027;-46
2022/06/24 07:30:47;;;;;;;13.52;4.47;;;26.60;1.00;;;;;;5145385;27;20384;-47
2022/06/24 07:33:13;;;;;;;17.90;5.18;;;26.70;1.00;;;;;;5155806;27;20460;-46
2022/06/24 07:35:39;;;;;;;8.45;4.00;;;26.70;1.00;;;;;;5154750;27;20058;-47
2022/06/24 07:38:04;;;;;;;14.88;5.38;;;26.80;1.00;;;;;;5154593;27;20310;-51
2022/06/24 07:40:30;;;;;;;12.65;4.68;;;27.00;1.00;;;;;;5146670;27;20019;-44
2022/06/24 07:42:56;;;;;;;12.48;4.50;;;27.00;1.00;;;;;;5151927;27;20018;-52
2022/06/24 07:45:21;;;;;;;13.93;5.50;;;27.00;1.00;;;;;;5148084;27;20058;-46
2022/06/24 07:47:47;;;;;;;15.65;4.43;;;27.30;1.00;;;;;;5142642;27;20027;-51
2022/06/24 07:50:13;;;;;;;9.68;3.97;;;27.20;1.00;;;;;;5152449;27;20482;-49
2022/06/24 07:52:38;;;;;;;11.18;4.43;;;27.10;1.00;;;;;;5141382;27;20023;-49
2022/06/24 07:57:49;;;;;;;11.73;3.83;;;27.20;1.00;;;;;;5149922;27;20069;-47
2022/06/24 08:00:15;;;;;;;12.02;4.60;;;27.10;1.00;;;;;;5136049;27;20138;-49
2022/06/24 08:02:40;;;;;;;8.85;4.43;;;27.00;1.00;;;;;;5140897;27;20023;-49
2022/06/24 08:05:06;;;;;;;13.88;4.35;;;27.10;1.00;;;;;;5140777;27;20046;-49
2022/06/24 08:07:32;;;;;;;6.22;3.90;;;27.10;1.00;;;;;;5148744;27;20026;-49
2022/06/24 08:09:58;;;;;;;12.38;4.15;;;27.20;1.00;;;;;;5147757;27;20088;-48
2022/06/24 08:12:23;;;;;;;10.85;4.85;;;27.30;1.00;;;;;;5151635;27;20099;-50
2022/06/24 08:14:49;;;;;;;13.05;4.32;;;27.60;1.00;;;;;;5153838;27;20029;-48
2022/06/24 08:17:14;;;;;;;12.43;4.10;;;27.70;1.00;;;;;;5146371;27;20023;-48
2022/06/24 08:19:40;;;;;;;12.30;4.05;;;27.70;1.00;;;;;;5143022;27;20073;-49
2022/06/24 08:22:06;;;;;;;15.45;4.80;;;27.80;1.00;;;;;;5134202;27;20102;-53
2022/06/24 08:24:32;;;;;;;14.23;4.28;;;27.60;1.00;;;;;;5145184;27;20480;-50
2022/06/24 08:26:57;;;;;;;12.05;3.45;;;27.70;1.00;;;;;;5147055;27;20026;-58
2022/06/24 08:29:23;;;;;;;11.38;4.88;;;27.80;1.00;;;;;;5139335;27;20030;-52
2022/06/24 08:31:48;;;;;;;14.45;5.07;;;28.00;1.00;;;;;;5148175;27;20441;-48
2022/06/24 08:34:15;;;;;;;8.50;3.03;;;28.10;1.00;;;;;;5134512;27;20105;-52
2022/06/24 08:36:40;;;;;;;9.18;3.50;;;28.00;1.00;;;;;;5153119;27;20090;-49
2022/06/24 08:39:06;;;;;;;8.70;3.88;;;28.00;1.00;;;;;;5154098;27;20149;-51
2022/06/24 08:41:32;;;;;;;6.28;3.50;;;27.90;1.00;;;;;;5148330;27;20076;-46
2022/06/24 08:43:58;;;;;;;11.30;3.72;;;28.00;1.00;;;;;;5153289;27;20018;-51
2022/06/24 08:46:25;;;;;;;8.80;3.47;;;28.00;1.00;;;;;;5152054;27;20022;-50
2022/06/24 08:48:51;;;;;;;7.85;3.70;;;28.00;1.00;;;;;;5152877;27;20034;-51
2022/06/24 08:51:18;;;;;;;10.88;3.92;;;28.20;1.00;;;;;;5145395;27;20507;-51
2022/06/24 08:53:47;;;;;;;10.35;3.95;;;28.10;1.00;;;;;;5153824;27;20011;-51
2022/06/24 08:56:13;;;;;;;10.27;3.75;;;28.00;1.00;;;;;;5147747;27;20023;-49
2022/06/24 08:58:40;;;;;;;9.10;3.40;;;28.00;1.00;;;;;;5149872;27;20569;-48
2022/06/24 09:01:06;;;;;;;7.80;3.00;;;28.10;1.00;;;;;;5138682;27;20107;-49
2022/06/24 09:03:31;;;;;;;14.13;4.00;;;28.10;1.00;;;;;;5151312;27;20451;-49
2022/06/24 09:05:57;;;;;;;12.02;3.28;;;28.10;1.00;;;;;;5152702;27;20149;-52
2022/06/24 09:08:32;;;;;;;9.20;3.38;;;28.10;1.00;;;;;;5153125;27;20387;-49
2022/06/24 09:11:09;;;;;;;9.15;3.00;;;28.20;1.00;;;;;;5147187;27;20780;-49
2022/06/24 09:13:49;;;;;;;9.75;3.15;;;28.40;1.00;;;;;;5150017;27;20025;-46
2022/06/24 09:16:17;;;;;;;9.85;3.08;;;28.50;1.00;;;;;;5147326;27;20038;-48
2022/06/24 09:18:51;;;;;;;9.40;3.38;;;28.60;1.00;;;;;;5137562;27;20118;-50
2022/06/24 09:21:21;;;;;;;;;;;28.70;1.00;;;;;;5148967;27;20071;-48
2022/06/24 09:23:52;;;;;;;8.70;3.55;;;28.40;1.00;;;;;;5152638;27;19907;-47
2022/06/24 09:26:30;;;;;;;11.45;3.50;;;28.50;1.00;;;;;;5151438;27;20035;-51
2022/06/24 09:28:57;;;;;;;11.88;3.92;;;28.50;1.00;;;;;;5139642;27;20425;-52
2022/06/24 09:31:28;;;;;;;9.07;3.63;;;28.80;1.00;;;;;;5148319;27;20015;-51
2022/06/24 09:33:55;;;;;;;9.20;3.28;;;29.00;1.00;;;;;;5152883;27;20019;-51
2022/06/24 09:36:25;;;;;;;6.90;3.47;;;29.00;1.00;;;;;;5151783;27;20034;-46
2022/06/24 09:39:05;;;;;;;12.82;4.18;;;29.00;1.00;;;;;;5153012;27;20466;-49
2022/06/24 09:41:42;;;;;;;7.93;3.53;;;28.90;1.00;;;;;;5150522;27;20039;-48
2022/06/24 09:44:09;;;;;;;10.50;3.63;;;29.00;1.00;;;;;;5141733;27;20035;-49
2022/06/24 09:46:35;;;;;;;10.13;3.90;;;29.00;1.00;;;;;;5152084;27;20023;-51
2022/06/24 09:49:02;;;;;;;11.38;4.10;;;29.10;1.00;;;;;;5146624;27;20030;-47
2022/06/24 09:51:28;;;;;;;8.40;4.03;;;29.20;1.00;;;;;;5152306;27;20180;-45
2022/06/24 09:53:54;;;;;;;8.63;3.80;;;29.20;1.00;;;;;;5151781;27;20022;-52
2022/06/24 09:56:20;;;;;;;9.50;4.45;;;29.40;1.00;;;;;;5152433;27;20067;-48
2022/06/24 10:01:38;;;;;;;10.82;4.32;;;29.50;1.00;;;;;;5152105;27;20452;-49
2022/06/24 10:04:06;;;;;;;8.02;3.53;;;29.40;1.00;;;;;;5151701;27;20031;-47
2022/06/24 10:06:36;;;;;;;11.35;3.70;;;29.50;1.00;;;;;;5136373;27;20023;-46
2022/06/24 10:09:12;;;;;;;11.20;3.88;;;29.60;1.00;;;;;;5151486;27;20031;-48
2022/06/24 10:11:42;;;;;;;11.02;4.50;;;29.90;1.00;;;;;;5152970;27;20095;-48
2022/06/24 10:14:09;;;;;;;11.30;4.63;;;30.00;1.00;;;;;;5155807;27;20031;-47
2022/06/24 10:16:36;;;;;;;10.85;4.07;;;29.80;1.00;;;;;;5143783;27;20027;-50
2022/06/24 10:19:02;;;;;;;11.70;4.68;;;29.80;1.00;;;;;;5144582;27;20042;-51
2022/06/24 10:21:28;;;;;;;9.57;4.07;;;29.70;1.00;;;;;;5156420;27;20023;-50
2022/06/24 10:23:56;;;;;;;8.13;3.60;;;29.70;1.00;;;;;;5155831;27;20019;-50
2022/06/24 10:26:25;;;;;;;7.55;3.05;;;29.70;1.00;;;;;;5156518;27;20027;-46
2022/06/24 10:29:00;;;;;;;13.40;4.30;;;29.70;1.00;;;;;;5154058;27;20079;-48
2022/06/24 10:31:37;;;;;;;13.52;4.00;;;29.80;1.00;;;;;;5155824;27;20049;-46
2022/06/24 10:34:03;;;;;;;13.18;3.95;;;29.70;1.00;;;;;;5155533;27;20091;-47
2022/06/24 10:36:31;;;;;;;10.85;4.18;;;29.80;1.00;;;;;;5156432;27;20015;-47
2022/06/24 10:39:10;;;;;;;8.20;3.95;;;30.00;1.00;;;;;;5155613;27;20077;-48
2022/06/24 10:41:41;;;;;;;9.07;3.45;;;29.90;1.00;;;;;;5155809;27;20029;-47
2022/06/24 10:44:28;;;;;;;9.52;3.65;;;30.00;1.00;;;;;;5155299;27;20062;-48
2022/06/24 10:47:12;;;;;;;13.75;3.58;;;30.10;1.00;;;;;;5147537;27;20391;-49
2022/06/24 10:49:56;;;;;;;12.32;5.15;;;30.10;1.00;;;;;;5148892;27;20038;-48
2022/06/24 10:52:36;;;;;;;10.50;4.20;;;30.30;1.00;;;;;;5144129;27;20039;-48
2022/06/24 10:55:17;;;;;;;8.07;3.90;;;30.60;1.00;;;;;;5155698;27;20019;-47
2022/06/24 10:57:47;;;;;;;8.27;3.90;;;30.60;1.00;;;;;;5155070;27;20027;-46
2022/06/24 11:00:17;;;;;;;17.42;6.90;;;30.40;1.00;;;;;;5133710;27;20087;-51
2022/06/24 11:02:45;;;;;;;11.07;5.18;;;30.20;1.00;;;;;;5142914;27;20384;-47
2022/06/24 11:05:34;;;;;;;10.10;4.00;;;30.10;1.00;;;;;;5154187;27;20031;-49
2022/06/24 11:08:00;;;;;;;13.15;4.22;;;30.50;1.00;;;;;;5148690;27;20031;-49
2022/06/24 11:10:31;;;;;;;9.57;3.58;;;30.60;1.00;;;;;;5155382;27;20043;-47
2022/06/24 11:12:58;;;;;;;8.85;4.03;;;30.70;1.00;;;;;;5152063;27;20023;-47
2022/06/24 11:15:37;;;;;;;6.68;3.95;;;30.90;1.00;;;;;;5152671;27;20046;-46
2022/06/24 11:18:10;;;;;;;10.27;3.78;;;31.10;1.00;;;;;;5155146;27;20368;-45
2022/06/24 11:20:59;;;;;;;9.57;3.90;;;31.20;1.00;;;;;;5155371;27;20026;-50
2022/06/24 11:23:27;;;;;;;11.40;4.25;;;32.10;1.00;;;;;;5145096;27;20456;-52
2022/06/24 11:26:03;;;;;;;11.45;4.35;;;34.50;1.00;;;;;;5155135;27;20113;-47
2022/06/24 11:28:36;;;;;;;13.73;5.20;;;34.80;1.00;;;;;;5154024;27;20014;-51
2022/06/24 11:31:21;;;;;;;12.30;4.75;;;33.30;1.00;;;;;;5155244;27;20511;-52
2022/06/24 11:33:50;;;;;;;9.40;4.30;;;34.00;1.00;;;;;;5154133;27;20035;-45
2022/06/24 11:36:16;;;;;;;8.48;4.45;;;34.80;1.00;;;;;;5146345;27;20011;-48
2022/06/24 11:38:56;;;;;;;9.48;4.30;;;35.70;1.00;;;;;;5148438;27;20030;-46
2022/06/24 11:41:33;;;;;;;11.55;5.22;;;35.00;1.00;;;;;;5152350;27;20123;-50
2022/06/24 11:43:58;;;;;;;11.18;4.53;;;34.50;1.00;;;;;;5141308;27;20034;-48
2022/06/24 11:46:25;;;;;;;10.65;4.20;;;33.50;1.00;;;;;;5151477;27;20027;-47
2022/06/24 11:49:26;;;;;;;10.45;3.90;;;33.00;1.00;;;;;;5145396;27;20023;-49
2022/06/24 11:51:52;;;;;;;10.00;3.88;;;32.90;1.00;;;;;;5070806;28;20035;-49
2022/06/24 11:54:18;;;;;;;10.82;3.70;;;33.00;1.00;;;;;;5128903;27;20045;-47
2022/06/24 11:56:44;;;;;;;10.77;3.72;;;33.00;1.00;;;;;;5148955;27;20019;-46
2022/06/24 11:59:11;;;;;;;8.20;4.03;;;33.60;1.00;;;;;;5138696;27;20329;-48
2022/06/24 12:01:38;;;;;;;11.80;3.70;;;35.00;1.00;;;;;;5144839;27;20101;-50
2022/06/24 12:04:08;;;;;;;8.15;3.60;;;35.50;1.00;;;;;;5146739;27;20031;-46
2022/06/24 12:06:39;;;;;;;13.63;4.10;;;34.90;1.00;;;;;;5150498;27;20031;-49
2022/06/24 12:09:05;;;;;;;7.57;4.03;;;34.20;1.00;;;;;;5148561;27;20026;-54
2022/06/24 12:11:37;;;;;;;17.85;6.63;;;33.90;1.00;;;;;;5141555;27;20047;-44
2022/06/24 12:14:05;;;;;;;203.50;79.97;;;34.30;1.00;;;;;;5140871;27;20019;-49
2022/06/24 12:17:00;;;;;;;81.68;33.08;;;34.10;1.00;;;;;;5140330;27;20421;-46
2022/06/24 12:19:27;;;;;;;11.48;5.72;;;34.30;1.00;;;;;;5151572;27;20395;-48
2022/06/24 12:22:08;;;;;;;18.55;8.02;;;34.70;1.00;;;;;;5154032;27;20023;-45
2022/06/24 12:24:34;;;;;;;6.70;4.68;;;34.50;1.00;;;;;;5149138;27;20126;-52
2022/06/24 12:27:03;;;;;;;10.35;4.47;;;34.40;1.00;;;;;;5144630;27;20014;-52
2022/06/24 12:29:33;;;;;;;6.35;3.70;;;33.90;1.00;;;;;;5151553;27;20031;-48
2022/06/24 12:32:01;;;;;;;5.60;3.53;;;33.60;1.00;;;;;;5154601;27;20019;-50
2022/06/24 12:34:31;;;;;;;10.60;4.43;;;33.40;1.00;;;;;;5144963;27;20041;-45
2022/06/24 12:37:02;;;;;;;11.35;4.47;;;33.10;1.00;;;;;;5143392;27;20358;-52
2022/06/24 12:39:34;;;;;;;6.28;3.35;;;32.90;1.00;;;;;;5141654;27;20041;-51
2022/06/24 12:42:00;;;;;;;8.50;3.20;;;32.70;1.00;;;;;;5154700;27;20325;-49
2022/06/24 12:44:51;;;;;;;7.35;3.80;;;32.70;1.00;;;;;;5146366;27;20034;-48
2022/06/24 12:53:02;;;;;;;12.55;3.65;;;32.20;1.00;;;;;;5154421;27;20037;-49
2022/06/24 12:55:30;;;;;;;8.82;3.78;;;31.90;1.00;;;;;;5142503;27;20105;-48
2022/06/24 12:57:56;;;;;;;9.07;3.53;;;31.80;1.00;;;;;;5154353;27;20083;-49
2022/06/24 13:00:21;;;;;;;10.07;3.58;;;31.50;1.00;;;;;;5143796;27;20085;-46
2022/06/24 13:02:49;;;;;;;11.38;5.45;;;31.60;1.00;;;;;;5144433;27;20031;-45
2022/06/24 13:05:16;;;;;;;12.73;3.40;;;31.60;1.00;;;;;;5153082;27;20063;-50
2022/06/24 13:07:42;;;;;;;6.78;3.40;;;31.40;1.00;;;;;;5153918;27;20027;-47
2022/06/24 13:10:09;;;;;;;9.60;3.50;;;31.30;1.00;;;;;;5151657;27;20421;-45
2022/06/24 13:12:35;;;;;;;8.30;3.75;;;31.20;1.00;;;;;;5154096;27;20097;-51
2022/06/24 13:15:02;;;;;;;9.75;3.42;;;30.90;1.00;;;;;;5139558;27;20490;-48